createdAt,value
2023-05-05T00:01:27.300Z,17.34
2023-05-05T00:03:54.192Z,17.34
2023-05-05T00:06:21.125Z,17.33
2023-05-05T00:08:47.962Z,17.32
2023-05-05T00:11:14.796Z,17.32
2023-05-05T00:13:41.635Z,17.31
2023-05-05T00:16:08.570Z,17.30
2023-05-05T00:18:35.548Z,17.29
2023-05-05T00:21:02.419Z,17.28
2023-05-05T00:23:29.288Z,17.26
2023-05-05T00:25:56.008Z,17.24
2023-05-05T00:28:22.955Z,17.22
2023-05-05T00:30:49.885Z,17.21
2023-05-05T00:33:16.816Z,17.20
2023-05-05T00:35:43.595Z,17.17
2023-05-05T00:38:10.400Z,17.16
2023-05-05T00:40:38.264Z,17.15
2023-05-05T00:43:05.310Z,17.13
2023-05-05T00:45:32.161Z,17.12
2023-05-05T00:48:00.942Z,17.11
2023-05-05T00:50:30.370Z,17.11
2023-05-05T00:53:06.044Z,17.08
2023-05-05T00:55:35.340Z,17.05
2023-05-05T00:58:04.149Z,17.04
2023-05-05T01:00:30.939Z,17.03
2023-05-05T01:02:58.030Z,17.04
2023-05-05T01:05:27.175Z,17.02
2023-05-05T01:08:18.071Z,16.99
2023-05-05T01:11:00.634Z,16.98
2023-05-05T01:14:13.725Z,16.95
2023-05-05T01:16:57.597Z,16.93
2023-05-05T01:19:36.444Z,16.91
2023-05-05T01:22:59.986Z,16.85
2023-05-05T01:25:49.538Z,16.81
2023-05-05T01:28:16.265Z,16.78
2023-05-05T01:30:55.112Z,16.77
2023-05-05T01:33:26.171Z,16.75
2023-05-05T01:36:03.240Z,16.73
2023-05-05T01:38:44.112Z,16.72
2023-05-05T01:41:18.343Z,16.73
2023-05-05T01:43:50.438Z,16.72
2023-05-05T01:46:19.416Z,16.70
2023-05-05T01:48:48.279Z,16.70
2023-05-05T01:51:17.967Z,16.69
2023-05-05T01:53:47.367Z,16.67
2023-05-05T01:56:15.484Z,16.67
2023-05-05T01:58:45.875Z,16.65
2023-05-05T02:01:14.527Z,16.64
2023-05-05T02:03:42.984Z,16.63
2023-05-05T02:06:11.605Z,16.62
2023-05-05T02:08:39.554Z,16.61
2023-05-05T02:11:09.035Z,16.60
2023-05-05T02:13:39.349Z,16.57
2023-05-05T02:16:08.532Z,16.55
2023-05-05T02:18:36.773Z,16.55
2023-05-05T02:21:04.051Z,16.53
2023-05-05T02:23:30.795Z,16.50
2023-05-05T02:26:04.766Z,16.49
2023-05-05T02:28:51.570Z,16.47
2023-05-05T02:31:22.991Z,16.48
2023-05-05T02:33:52.305Z,16.47
2023-05-05T02:36:26.093Z,16.48
2023-05-05T02:39:02.217Z,16.49
2023-05-05T02:41:33.306Z,16.50
2023-05-05T02:44:13.530Z,16.51
2023-05-05T02:46:42.653Z,16.51
2023-05-05T02:49:09.321Z,16.52
2023-05-05T02:51:36.448Z,16.53
2023-05-05T02:54:06.482Z,16.52
2023-05-05T02:56:43.109Z,16.52
2023-05-05T02:59:19.761Z,16.52
2023-05-05T03:02:02.764Z,16.53
2023-05-05T03:04:38.433Z,16.52
2023-05-05T03:07:12.282Z,16.51
2023-05-05T03:09:57.357Z,16.50
2023-05-05T03:12:30.412Z,16.48
2023-05-05T03:15:13.844Z,16.47
2023-05-05T03:17:41.875Z,16.44
2023-05-05T03:20:10.414Z,16.44
2023-05-05T03:22:38.539Z,16.45
2023-05-05T03:25:06.464Z,16.45
2023-05-05T03:27:33.208Z,16.45
2023-05-05T03:30:00.219Z,16.46
2023-05-05T03:32:27.692Z,16.45
2023-05-05T03:34:54.688Z,16.42
2023-05-05T03:37:25.691Z,16.42
2023-05-05T03:39:53.022Z,16.43
2023-05-05T03:42:20.993Z,16.44
2023-05-05T03:44:47.572Z,16.44
2023-05-05T03:47:15.170Z,16.44
2023-05-05T03:49:43.041Z,16.43
2023-05-05T03:52:09.633Z,16.41
2023-05-05T03:54:36.866Z,16.38
2023-05-05T03:57:04.106Z,16.38
2023-05-05T03:59:30.701Z,16.39
2023-05-05T04:01:57.391Z,16.39
2023-05-05T04:04:24.167Z,16.41
2023-05-05T04:06:51.583Z,16.41
2023-05-05T04:09:20.132Z,16.41
2023-05-05T04:11:47.500Z,16.41
2023-05-05T04:14:14.242Z,16.42
2023-05-05T04:16:41.133Z,16.43
2023-05-05T04:19:09.469Z,16.42
2023-05-05T04:21:37.109Z,16.41
2023-05-05T04:24:04.298Z,16.40
2023-05-05T04:26:32.254Z,16.40
2023-05-05T04:28:59.293Z,16.40
2023-05-05T04:31:26.485Z,16.41
2023-05-05T04:33:53.169Z,16.41
2023-05-05T04:36:19.885Z,16.42
2023-05-05T04:38:47.261Z,16.43
2023-05-05T04:41:14.146Z,16.43
2023-05-05T04:43:41.969Z,16.45
2023-05-05T04:46:09.239Z,16.48
2023-05-05T04:48:38.169Z,16.51
2023-05-05T04:51:07.464Z,16.56
2023-05-05T04:53:34.476Z,16.59
2023-05-05T04:56:02.166Z,16.63
2023-05-05T04:58:29.219Z,16.66
2023-05-05T05:00:55.860Z,16.70
2023-05-05T05:03:22.695Z,16.76
2023-05-05T05:05:50.239Z,16.82
2023-05-05T05:08:17.540Z,16.90
2023-05-05T05:10:45.189Z,16.97
2023-05-05T05:13:13.039Z,17.04
2023-05-05T05:15:40.715Z,17.13
2023-05-05T05:18:07.462Z,17.22
2023-05-05T05:20:36.663Z,17.32
2023-05-05T05:23:05.258Z,17.41
2023-05-05T05:25:35.327Z,17.47
2023-05-05T05:28:10.311Z,17.54
2023-05-05T05:30:43.299Z,17.63
2023-05-05T05:33:10.788Z,17.74
2023-05-05T05:35:38.401Z,17.86
2023-05-05T05:38:06.305Z,18.01
2023-05-05T05:40:33.264Z,18.15
2023-05-05T05:42:59.956Z,18.26
2023-05-05T05:45:27.274Z,18.38
2023-05-05T05:47:54.037Z,18.50
2023-05-05T05:50:21.470Z,18.61
2023-05-05T05:52:49.374Z,18.72
2023-05-05T05:55:16.043Z,18.82
2023-05-05T05:57:43.767Z,18.91
2023-05-05T06:00:13.303Z,19.01
2023-05-05T06:02:41.105Z,19.13
2023-05-05T06:05:11.352Z,19.24
2023-05-05T06:07:38.004Z,19.36
2023-05-05T06:10:22.613Z,19.51
2023-05-05T06:12:53.460Z,19.68
2023-05-05T06:15:20.362Z,19.81
2023-05-05T06:17:47.192Z,19.92
2023-05-05T06:20:15.381Z,20.04
2023-05-05T06:22:41.956Z,20.14
2023-05-05T06:25:09.330Z,20.24
2023-05-05T06:27:37.069Z,20.33
2023-05-05T06:30:04.453Z,20.43
2023-05-05T06:32:32.430Z,20.49
2023-05-05T06:34:59.006Z,20.50
2023-05-05T06:37:26.389Z,20.50
2023-05-05T06:39:52.983Z,20.49
2023-05-05T06:42:19.561Z,20.49
2023-05-05T06:44:46.388Z,20.54
2023-05-05T06:47:13.050Z,20.60
2023-05-05T06:49:39.679Z,20.70
2023-05-05T06:52:08.475Z,20.76
2023-05-05T06:54:35.062Z,20.81
2023-05-05T06:57:02.502Z,20.85
2023-05-05T06:59:29.597Z,20.85
2023-05-05T07:01:56.947Z,20.87
2023-05-05T07:04:23.602Z,20.93
2023-05-05T07:06:50.495Z,21.00
2023-05-05T07:09:17.510Z,21.05
2023-05-05T07:11:44.393Z,21.13
2023-05-05T07:14:11.474Z,21.21
2023-05-05T07:16:39.516Z,21.33
2023-05-05T07:19:06.400Z,21.51
2023-05-05T07:21:37.508Z,21.58
2023-05-05T07:24:04.256Z,21.74
2023-05-05T07:26:31.503Z,21.94
2023-05-05T07:28:59.481Z,22.19
2023-05-05T07:31:26.628Z,22.37
2023-05-05T07:33:54.466Z,22.42
2023-05-05T07:36:21.062Z,22.39
2023-05-05T07:38:48.531Z,22.42
2023-05-05T07:41:16.544Z,22.58
2023-05-05T07:43:44.607Z,22.76
2023-05-05T07:46:12.155Z,22.86
2023-05-05T07:48:41.574Z,23.02
2023-05-05T07:51:09.549Z,23.12
2023-05-05T07:53:36.674Z,23.27
2023-05-05T07:56:03.553Z,23.55
2023-05-05T07:58:30.169Z,23.81
2023-05-05T08:00:56.888Z,23.94
2023-05-05T08:03:25.146Z,24.07
2023-05-05T08:05:55.518Z,24.17
2023-05-05T08:08:25.099Z,24.23
2023-05-05T08:10:53.215Z,24.28
2023-05-05T08:13:39.605Z,24.27
2023-05-05T08:16:07.716Z,24.35
2023-05-05T08:18:38.593Z,24.51
2023-05-05T08:21:10.593Z,24.65
2023-05-05T08:23:38.580Z,24.88
2023-05-05T08:26:06.537Z,24.99
2023-05-05T08:28:36.602Z,25.05
2023-05-05T08:31:07.001Z,25.24
2023-05-05T08:33:34.620Z,25.34
2023-05-05T08:36:02.053Z,25.47
2023-05-05T08:38:28.644Z,25.43
2023-05-05T08:40:55.669Z,25.46
2023-05-05T08:43:23.911Z,25.49
2023-05-05T08:45:53.578Z,25.65
2023-05-05T08:48:23.310Z,25.77
2023-05-05T08:50:59.870Z,25.78
2023-05-05T08:53:48.847Z,26.01
2023-05-05T08:56:16.120Z,26.12
2023-05-05T08:58:43.898Z,26.11
2023-05-05T09:01:12.048Z,26.12
2023-05-05T09:03:39.723Z,26.23
2023-05-05T09:06:07.226Z,26.36
2023-05-05T09:08:34.174Z,26.58
2023-05-05T09:11:02.341Z,26.75
2023-05-05T09:13:30.786Z,26.69
2023-05-05T09:15:58.261Z,26.67
2023-05-05T09:18:25.844Z,26.79
2023-05-05T09:20:52.520Z,26.94
2023-05-05T09:23:20.541Z,27.14
2023-05-05T09:26:02.032Z,27.38
2023-05-05T09:28:29.224Z,27.42
2023-05-05T09:30:55.893Z,27.49
2023-05-05T09:33:31.681Z,27.59
2023-05-05T09:35:58.601Z,27.53
2023-05-05T09:38:25.532Z,27.36
2023-05-05T09:40:53.665Z,27.41
2023-05-05T09:43:22.369Z,27.53
2023-05-05T09:45:49.957Z,27.67
2023-05-05T09:48:31.924Z,27.86
2023-05-05T09:50:59.371Z,27.83
2023-05-05T09:53:27.198Z,27.81
2023-05-05T09:55:58.019Z,27.71
2023-05-05T09:58:26.951Z,27.61
2023-05-05T10:00:55.724Z,27.70
2023-05-05T10:03:23.053Z,27.99
2023-05-05T10:05:54.621Z,28.30
2023-05-05T10:08:23.988Z,28.46
2023-05-05T10:10:57.082Z,28.51
2023-05-05T10:13:24.797Z,28.42
2023-05-05T10:15:55.071Z,28.31
2023-05-05T10:18:24.598Z,28.41
2023-05-05T10:21:04.359Z,28.59
2023-05-05T10:23:48.908Z,28.56
2023-05-05T10:26:19.648Z,28.58
2023-05-05T10:28:56.799Z,28.49
2023-05-05T10:31:37.331Z,28.49
2023-05-05T10:34:09.772Z,28.38
2023-05-05T10:36:39.204Z,28.20
2023-05-05T10:39:10.774Z,28.21
2023-05-05T10:41:37.959Z,28.38
2023-05-05T10:44:06.252Z,28.68
2023-05-05T10:46:33.088Z,28.96
2023-05-05T10:49:51.188Z,29.35
2023-05-05T10:52:29.065Z,29.66
2023-05-05T10:55:01.674Z,29.62
2023-05-05T10:57:29.629Z,29.68
2023-05-05T10:59:56.213Z,29.74
2023-05-05T11:02:27.147Z,29.99
2023-05-05T11:05:04.081Z,30.28
2023-05-05T11:07:31.032Z,30.50
2023-05-05T11:10:01.542Z,30.59
2023-05-05T11:12:32.281Z,30.72
2023-05-05T11:15:24.190Z,30.48
2023-05-05T11:17:51.159Z,30.37
2023-05-05T11:20:18.006Z,30.40
2023-05-05T11:23:02.961Z,30.33
2023-05-05T11:25:45.364Z,29.94
2023-05-05T11:28:28.629Z,29.99
2023-05-05T11:30:55.310Z,30.14
2023-05-05T11:33:29.337Z,30.28
2023-05-05T11:36:07.149Z,30.43
2023-05-05T11:39:02.831Z,30.67
2023-05-05T11:41:32.334Z,30.82
2023-05-05T11:44:13.421Z,31.03
2023-05-05T11:46:53.415Z,31.30
2023-05-05T11:49:27.363Z,31.27
2023-05-05T11:51:57.939Z,31.28
2023-05-05T11:54:25.370Z,31.36
2023-05-05T11:56:54.415Z,31.08
2023-05-05T11:59:21.736Z,30.65
2023-05-05T12:01:48.666Z,30.44
2023-05-05T12:04:16.449Z,30.49
2023-05-05T12:06:46.194Z,30.77
2023-05-05T12:09:21.769Z,30.93
2023-05-05T12:11:58.716Z,30.90
2023-05-05T12:14:25.802Z,30.75
2023-05-05T12:16:56.332Z,30.53
2023-05-05T12:19:23.984Z,30.37
2023-05-05T12:21:50.837Z,30.28
2023-05-05T12:24:18.017Z,30.32
2023-05-05T12:26:44.643Z,30.50
2023-05-05T12:29:11.301Z,30.52
2023-05-05T12:31:42.321Z,30.35
2023-05-05T12:34:10.690Z,30.27
2023-05-05T12:36:38.302Z,30.27
2023-05-05T12:39:05.401Z,30.45
2023-05-05T12:41:32.743Z,30.60
2023-05-05T12:44:00.766Z,30.64
2023-05-05T12:46:29.852Z,30.61
2023-05-05T12:49:07.507Z,30.55
2023-05-05T12:51:37.837Z,30.61
2023-05-05T12:54:10.029Z,30.70
2023-05-05T12:56:41.420Z,30.62
2023-05-05T12:59:08.925Z,30.43
2023-05-05T13:01:36.984Z,30.46
2023-05-05T13:04:10.734Z,30.58
2023-05-05T13:06:39.153Z,30.61
2023-05-05T13:09:06.738Z,30.59
2023-05-05T13:11:38.041Z,30.62
2023-05-05T13:14:06.549Z,30.61
2023-05-05T13:16:33.956Z,30.58
2023-05-05T13:19:00.648Z,30.60
2023-05-05T13:21:28.204Z,30.40
2023-05-05T13:23:59.093Z,30.15
2023-05-05T13:26:31.757Z,29.83
2023-05-05T13:28:58.421Z,29.44
2023-05-05T13:31:25.068Z,29.22
2023-05-05T13:33:51.969Z,28.94
2023-05-05T13:36:18.548Z,28.91
2023-05-05T13:38:45.568Z,28.87
2023-05-05T13:41:12.231Z,28.61
2023-05-05T13:43:38.824Z,28.52
2023-05-05T13:46:19.147Z,28.45
2023-05-05T13:48:47.656Z,28.30
2023-05-05T13:51:15.944Z,28.18
2023-05-05T13:53:44.152Z,28.13
2023-05-05T13:56:11.020Z,27.99
2023-05-05T13:58:37.963Z,27.91
2023-05-05T14:01:04.750Z,27.79
2023-05-05T14:03:31.752Z,27.68
2023-05-05T14:05:58.491Z,27.64
2023-05-05T14:08:25.232Z,27.58
2023-05-05T14:10:52.235Z,27.62
2023-05-05T14:13:19.216Z,27.74
2023-05-05T14:15:46.577Z,27.83
2023-05-05T14:18:13.184Z,27.78
2023-05-05T14:20:39.891Z,27.69
2023-05-05T14:23:06.611Z,27.51
2023-05-05T14:25:33.250Z,27.41
2023-05-05T14:27:59.829Z,27.32
2023-05-05T14:30:26.456Z,27.32
2023-05-05T14:32:53.165Z,27.20
2023-05-05T14:35:19.808Z,27.11
2023-05-05T14:37:46.557Z,27.09
2023-05-05T14:40:13.195Z,27.06
2023-05-05T14:42:39.873Z,27.04
2023-05-05T14:45:08.986Z,27.05
2023-05-05T14:47:35.776Z,27.08
2023-05-05T14:50:02.426Z,27.04
2023-05-05T14:52:29.058Z,27.01
2023-05-05T14:54:55.826Z,26.98
2023-05-05T14:57:22.434Z,26.91
2023-05-05T14:59:52.046Z,26.83
2023-05-05T15:02:19.177Z,26.79
2023-05-05T15:04:46.737Z,26.78
2023-05-05T15:07:14.764Z,26.77
2023-05-05T15:09:41.318Z,26.77
2023-05-05T15:12:07.886Z,26.73
2023-05-05T15:14:36.616Z,26.61
2023-05-05T15:17:03.261Z,26.49
2023-05-05T15:19:29.935Z,26.39
2023-05-05T15:21:56.552Z,26.38
2023-05-05T15:24:23.280Z,26.38
2023-05-05T15:26:49.899Z,26.34
2023-05-05T15:29:16.537Z,26.23
2023-05-05T15:31:43.238Z,26.16
2023-05-05T15:34:09.898Z,26.03
2023-05-05T15:36:36.505Z,25.90
2023-05-05T15:39:03.390Z,25.87
2023-05-05T15:41:30.054Z,25.78
2023-05-05T15:43:57.053Z,25.63
2023-05-05T15:46:23.731Z,25.52
2023-05-05T15:48:50.441Z,25.51
2023-05-05T15:51:17.076Z,25.50
2023-05-05T15:53:43.677Z,25.52
2023-05-05T15:56:11.805Z,25.51
2023-05-05T15:58:38.397Z,25.46
2023-05-05T16:01:05.243Z,25.43
2023-05-05T16:03:32.081Z,25.40
2023-05-05T16:05:58.837Z,25.38
2023-05-05T16:08:25.457Z,25.39
2023-05-05T16:10:52.693Z,25.38
2023-05-05T16:13:19.441Z,25.38
2023-05-05T16:15:46.347Z,25.36
2023-05-05T16:18:13.107Z,25.33
2023-05-05T16:20:40.155Z,25.29
2023-05-05T16:23:08.050Z,25.20
2023-05-05T16:25:34.681Z,25.17
2023-05-05T16:28:01.844Z,25.13
2023-05-05T16:30:29.511Z,25.08
2023-05-05T16:32:56.228Z,25.03
2023-05-05T16:35:23.071Z,24.99
2023-05-05T16:37:49.644Z,24.99
2023-05-05T16:40:16.277Z,25.00
2023-05-05T16:42:44.481Z,25.02
2023-05-05T16:45:11.836Z,25.05
2023-05-05T16:47:38.561Z,25.07
2023-05-05T16:50:06.214Z,25.08
2023-05-05T16:52:32.798Z,25.07
2023-05-05T16:54:59.396Z,25.05
2023-05-05T16:57:26.081Z,25.03
2023-05-05T16:59:56.112Z,25.00
2023-05-05T17:02:23.130Z,25.00
2023-05-05T17:04:49.742Z,24.98
2023-05-05T17:07:16.329Z,24.92
2023-05-05T17:09:42.887Z,24.86
2023-05-05T17:12:09.500Z,24.82
2023-05-05T17:14:36.361Z,24.79
2023-05-05T17:17:03.062Z,24.77
2023-05-05T17:19:29.764Z,24.75
2023-05-05T17:21:56.927Z,24.71
2023-05-05T17:24:24.138Z,24.63
2023-05-05T17:26:50.914Z,24.58
2023-05-05T17:29:21.637Z,24.52
2023-05-05T17:31:48.499Z,24.43
2023-05-05T17:34:15.235Z,24.35
2023-05-05T17:36:42.115Z,24.30
2023-05-05T17:39:10.664Z,24.24
2023-05-05T17:41:37.333Z,24.20
2023-05-05T17:44:04.151Z,24.17
2023-05-05T17:46:30.789Z,24.12
2023-05-05T17:48:57.462Z,24.07
2023-05-05T17:51:24.084Z,24.01
2023-05-05T17:53:50.666Z,23.94
2023-05-05T17:56:17.276Z,23.87
2023-05-05T17:58:43.866Z,23.81
2023-05-05T18:01:20.089Z,23.75
2023-05-05T18:03:46.817Z,23.69
2023-05-05T18:06:13.439Z,23.60
2023-05-05T18:08:40.013Z,23.51
2023-05-05T18:11:06.648Z,23.43
2023-05-05T18:13:33.357Z,23.35
2023-05-05T18:15:59.996Z,23.27
2023-05-05T18:18:26.992Z,23.17
2023-05-05T18:20:53.658Z,23.06
2023-05-05T18:23:20.345Z,22.94
2023-05-05T18:25:46.959Z,22.85
2023-05-05T18:28:13.651Z,22.75
2023-05-05T18:30:40.362Z,22.65
2023-05-05T18:33:07.013Z,22.56
2023-05-05T18:35:33.801Z,22.49
2023-05-05T18:38:00.376Z,22.41
2023-05-05T18:40:27.154Z,22.33
2023-05-05T18:42:53.887Z,22.24
2023-05-05T18:45:20.918Z,22.14
2023-05-05T18:47:47.667Z,22.04
2023-05-05T18:50:14.412Z,21.96
2023-05-05T18:52:40.981Z,21.91
2023-05-05T18:55:08.292Z,21.82
2023-05-05T18:57:35.079Z,21.75
2023-05-05T19:00:01.892Z,21.70
2023-05-05T19:02:28.657Z,21.64
2023-05-05T19:04:55.478Z,21.58
2023-05-05T19:07:33.802Z,21.53
2023-05-05T19:10:01.664Z,21.50
2023-05-05T19:12:28.360Z,21.46
2023-05-05T19:14:56.064Z,21.44
2023-05-05T19:17:24.134Z,21.41
2023-05-05T19:19:51.100Z,21.38
2023-05-05T19:22:19.191Z,21.34
2023-05-05T19:24:47.825Z,21.31
2023-05-05T19:27:16.696Z,21.29
2023-05-05T19:29:44.332Z,21.26
2023-05-05T19:32:18.456Z,21.23
2023-05-05T19:34:46.110Z,21.21
2023-05-05T19:37:14.602Z,21.19
2023-05-05T19:39:45.699Z,21.16
2023-05-05T19:42:12.805Z,21.13
2023-05-05T19:44:49.328Z,21.11
2023-05-05T19:47:16.540Z,21.09
2023-05-05T19:49:43.180Z,21.06
2023-05-05T19:52:09.833Z,21.01
2023-05-05T19:54:36.690Z,20.98
2023-05-05T19:57:03.464Z,20.96
2023-05-05T19:59:30.256Z,20.93
2023-05-05T20:01:56.944Z,20.91
2023-05-05T20:04:23.576Z,20.87
2023-05-05T20:06:50.650Z,20.83
2023-05-05T20:09:17.611Z,20.77
2023-05-05T20:11:44.207Z,20.72
2023-05-05T20:14:10.906Z,20.72
2023-05-05T20:16:37.650Z,20.69
2023-05-05T20:19:05.420Z,20.67
2023-05-05T20:21:33.743Z,20.66
2023-05-05T20:24:01.120Z,20.64
2023-05-05T20:26:27.734Z,20.64
2023-05-05T20:28:54.330Z,20.60
2023-05-05T20:31:21.187Z,20.59
2023-05-05T20:33:48.010Z,20.57
2023-05-05T20:36:15.488Z,20.56
2023-05-05T20:38:43.631Z,20.53
2023-05-05T20:41:10.440Z,20.51
2023-05-05T20:43:37.425Z,20.50
2023-05-05T20:46:04.098Z,20.48
2023-05-05T20:48:30.706Z,20.45
2023-05-05T20:50:58.913Z,20.42
2023-05-05T20:53:25.644Z,20.40
2023-05-05T20:55:52.249Z,20.38
2023-05-05T20:58:18.929Z,20.36
2023-05-05T21:00:46.147Z,20.35
2023-05-05T21:03:13.015Z,20.32
2023-05-05T21:05:41.450Z,20.29
2023-05-05T21:08:10.324Z,20.25
2023-05-05T21:10:36.954Z,20.20
2023-05-05T21:13:03.759Z,20.16
2023-05-05T21:15:30.617Z,20.13
2023-05-05T21:17:57.606Z,20.11
2023-05-05T21:20:24.519Z,20.08
2023-05-05T21:22:51.333Z,20.06
2023-05-05T21:25:20.476Z,20.05
2023-05-05T21:27:48.544Z,20.04
2023-05-05T21:30:16.642Z,20.02
2023-05-05T21:32:43.820Z,20.02
2023-05-05T21:35:10.844Z,20.00
2023-05-05T21:37:39.118Z,20.01
2023-05-05T21:40:13.356Z,20.00
2023-05-05T21:42:41.265Z,19.98
2023-05-05T21:45:08.950Z,19.95
2023-05-05T21:47:35.990Z,19.93
2023-05-05T21:50:02.618Z,19.91
2023-05-05T21:52:32.051Z,19.91
2023-05-05T21:54:58.760Z,19.90
2023-05-05T21:57:25.385Z,19.89
2023-05-05T21:59:52.029Z,19.86
2023-05-05T22:02:18.711Z,19.86
2023-05-05T22:04:48.782Z,19.85
2023-05-05T22:07:15.591Z,19.84
2023-05-05T22:09:43.068Z,19.83
2023-05-05T22:12:09.807Z,19.82
2023-05-05T22:14:36.405Z,19.82
2023-05-05T22:17:03.111Z,19.80
2023-05-05T22:19:29.720Z,19.78
2023-05-05T22:21:58.749Z,19.76
2023-05-05T22:24:25.849Z,19.74
2023-05-05T22:26:52.502Z,19.71
2023-05-05T22:29:19.241Z,19.67
2023-05-05T22:31:45.974Z,19.64
2023-05-05T22:34:12.715Z,19.62
2023-05-05T22:36:39.308Z,19.60
2023-05-05T22:39:06.536Z,19.59
2023-05-05T22:41:33.117Z,19.58
2023-05-05T22:43:59.790Z,19.55
2023-05-05T22:46:26.471Z,19.52
2023-05-05T22:48:54.220Z,19.49
2023-05-05T22:51:20.904Z,19.48
2023-05-05T22:53:47.958Z,19.47
2023-05-05T22:56:14.710Z,19.47
2023-05-05T22:58:41.320Z,19.47
2023-05-05T23:01:08.039Z,19.45
2023-05-05T23:03:34.665Z,19.44
2023-05-05T23:06:01.290Z,19.41
2023-05-05T23:08:27.970Z,19.37
2023-05-05T23:10:56.368Z,19.34
2023-05-05T23:13:23.014Z,19.33
2023-05-05T23:15:49.725Z,19.32
2023-05-05T23:18:16.374Z,19.30
2023-05-05T23:20:43.009Z,19.28
2023-05-05T23:23:09.692Z,19.27
2023-05-05T23:25:36.364Z,19.26
2023-05-05T23:28:03.083Z,19.24
2023-05-05T23:30:29.705Z,19.22
2023-05-05T23:32:58.089Z,19.19
2023-05-05T23:35:24.883Z,19.16
2023-05-05T23:37:51.577Z,19.13
2023-05-05T23:40:18.200Z,19.11
2023-05-05T23:42:44.794Z,19.07
2023-05-05T23:45:11.796Z,19.05
2023-05-05T23:47:38.743Z,19.02
2023-05-05T23:50:06.056Z,18.99
2023-05-05T23:52:32.667Z,18.96
2023-05-05T23:54:59.231Z,18.93
2023-05-05T23:57:26.343Z,18.90
2023-05-05T23:59:53.015Z,18.87
